sensor_id;sensor_type;location;lat;lon;timestamp;P1;durP1;ratioP1;P2;durP2;ratioP2
18659;SDS011;9459;50.254;19.014;2023-06-10T00:00:20;10.43;;;9.52;;
18659;SDS011;9459;50.254;19.014;2023-06-10T00:03:09;10.63;;;9.52;;
18659;SDS011;9459;50.254;19.014;2023-06-10T00:05:38;11.50;;;10.40;;
18659;SDS011;9459;50.254;19.014;2023-06-10T00:08:08;12.98;;;11.77;;
18659;SDS011;9459;50.254;19.014;2023-06-10T00:10:38;11.45;;;10.27;;
18659;SDS011;9459;50.254;19.014;2023-06-10T00:13:07;11.70;;;10.60;;
18659;SDS011;9459;50.254;19.014;2023-06-10T00:15:35;9.93;;;8.98;;
18659;SDS011;9459;50.254;19.014;2023-06-10T00:18:04;11.07;;;10.00;;
18659;SDS011;9459;50.254;19.014;2023-06-10T00:20:34;10.23;;;9.30;;
18659;SDS011;9459;50.254;19.014;2023-06-10T00:23:02;12.00;;;10.82;;
18659;SDS011;9459;50.254;19.014;2023-06-10T00:25:35;10.65;;;9.75;;
18659;SDS011;9459;50.254;19.014;2023-06-10T00:28:04;11.73;;;10.63;;
18659;SDS011;9459;50.254;19.014;2023-06-10T00:30:32;11.85;;;10.65;;
18659;SDS011;9459;50.254;19.014;2023-06-10T00:33:01;12.27;;;11.07;;
18659;SDS011;9459;50.254;19.014;2023-06-10T00:35:30;13.15;;;11.75;;
18659;SDS011;9459;50.254;19.014;2023-06-10T00:37:58;11.90;;;10.80;;
18659;SDS011;9459;50.254;19.014;2023-06-10T00:40:27;12.35;;;11.05;;
18659;SDS011;9459;50.254;19.014;2023-06-10T00:42:57;13.15;;;11.93;;
18659;SDS011;9459;50.254;19.014;2023-06-10T00:45:26;13.20;;;11.80;;
18659;SDS011;9459;50.254;19.014;2023-06-10T00:47:55;12.48;;;11.38;;
18659;SDS011;9459;50.254;19.014;2023-06-10T00:50:24;12.52;;;11.32;;
18659;SDS011;9459;50.254;19.014;2023-06-10T00:52:53;12.57;;;11.40;;
18659;SDS011;9459;50.254;19.014;2023-06-10T00:55:22;11.38;;;10.27;;
18659;SDS011;9459;50.254;19.014;2023-06-10T00:57:51;12.82;;;11.23;;
18659;SDS011;9459;50.254;19.014;2023-06-10T01:00:22;11.55;;;10.55;;
18659;SDS011;9459;50.254;19.014;2023-06-10T01:02:51;11.85;;;10.65;;
18659;SDS011;9459;50.254;19.014;2023-06-10T01:05:20;12.07;;;10.88;;
18659;SDS011;9459;50.254;19.014;2023-06-10T01:07:50;13.05;;;11.20;;
18659;SDS011;9459;50.254;19.014;2023-06-10T01:10:25;11.70;;;10.60;;
18659;SDS011;9459;50.254;19.014;2023-06-10T01:12:59;12.35;;;10.98;;
18659;SDS011;9459;50.254;19.014;2023-06-10T01:15:32;11.55;;;10.45;;
18659;SDS011;9459;50.254;19.014;2023-06-10T01:18:01;11.80;;;10.60;;
18659;SDS011;9459;50.254;19.014;2023-06-10T01:20:31;12.15;;;11.05;;
18659;SDS011;9459;50.254;19.014;2023-06-10T01:23:01;12.55;;;11.30;;
18659;SDS011;9459;50.254;19.014;2023-06-10T01:25:31;13.18;;;11.88;;
18659;SDS011;9459;50.254;19.014;2023-06-10T01:28:04;11.60;;;10.40;;
18659;SDS011;9459;50.254;19.014;2023-06-10T01:30:37;9.43;;;8.55;;
18659;SDS011;9459;50.254;19.014;2023-06-10T01:33:08;9.85;;;8.95;;
18659;SDS011;9459;50.254;19.014;2023-06-10T01:35:38;10.38;;;9.27;;
18659;SDS011;9459;50.254;19.014;2023-06-10T01:38:08;8.93;;;8.13;;
18659;SDS011;9459;50.254;19.014;2023-06-10T01:40:37;11.05;;;10.05;;
18659;SDS011;9459;50.254;19.014;2023-06-10T01:43:07;13.52;;;12.13;;
18659;SDS011;9459;50.254;19.014;2023-06-10T01:45:36;13.40;;;12.15;;
18659;SDS011;9459;50.254;19.014;2023-06-10T01:48:04;15.68;;;12.32;;
18659;SDS011;9459;50.254;19.014;2023-06-10T01:50:33;14.90;;;12.80;;
18659;SDS011;9459;50.254;19.014;2023-06-10T01:53:01;15.98;;;13.88;;
18659;SDS011;9459;50.254;19.014;2023-06-10T01:55:31;14.75;;;13.23;;
18659;SDS011;9459;50.254;19.014;2023-06-10T01:58:00;15.32;;;13.73;;
18659;SDS011;9459;50.254;19.014;2023-06-10T02:00:29;17.10;;;14.73;;
18659;SDS011;9459;50.254;19.014;2023-06-10T02:02:58;17.83;;;14.52;;
18659;SDS011;9459;50.254;19.014;2023-06-10T02:05:26;16.95;;;15.32;;
18659;SDS011;9459;50.254;19.014;2023-06-10T02:07:55;14.52;;;13.02;;
18659;SDS011;9459;50.254;19.014;2023-06-10T02:10:31;14.70;;;12.65;;
18659;SDS011;9459;50.254;19.014;2023-06-10T02:12:59;16.10;;;14.50;;
18659;SDS011;9459;50.254;19.014;2023-06-10T02:15:29;13.95;;;12.45;;
18659;SDS011;9459;50.254;19.014;2023-06-10T02:17:57;14.32;;;12.75;;
18659;SDS011;9459;50.254;19.014;2023-06-10T02:20:28;13.30;;;12.10;;
18659;SDS011;9459;50.254;19.014;2023-06-10T02:22:56;14.57;;;13.05;;
18659;SDS011;9459;50.254;19.014;2023-06-10T02:25:25;15.15;;;13.57;;
18659;SDS011;9459;50.254;19.014;2023-06-10T02:27:55;14.65;;;13.23;;
18659;SDS011;9459;50.254;19.014;2023-06-10T02:30:24;14.27;;;12.93;;
18659;SDS011;9459;50.254;19.014;2023-06-10T02:32:53;13.55;;;12.18;;
18659;SDS011;9459;50.254;19.014;2023-06-10T02:35:23;13.17;;;11.87;;
18659;SDS011;9459;50.254;19.014;2023-06-10T02:37:51;13.23;;;11.85;;
18659;SDS011;9459;50.254;19.014;2023-06-10T02:40:20;15.48;;;13.48;;
18659;SDS011;9459;50.254;19.014;2023-06-10T02:42:49;14.18;;;12.68;;
18659;SDS011;9459;50.254;19.014;2023-06-10T02:45:19;14.45;;;12.90;;
18659;SDS011;9459;50.254;19.014;2023-06-10T02:47:47;12.25;;;11.15;;
18659;SDS011;9459;50.254;19.014;2023-06-10T02:50:16;14.02;;;12.52;;
18659;SDS011;9459;50.254;19.014;2023-06-10T02:52:44;12.73;;;11.52;;
18659;SDS011;9459;50.254;19.014;2023-06-10T02:55:13;15.10;;;13.05;;
18659;SDS011;9459;50.254;19.014;2023-06-10T02:57:41;15.40;;;12.45;;
18659;SDS011;9459;50.254;19.014;2023-06-10T03:00:10;15.32;;;13.93;;
18659;SDS011;9459;50.254;19.014;2023-06-10T03:02:42;17.43;;;15.13;;
18659;SDS011;9459;50.254;19.014;2023-06-10T03:05:13;18.50;;;16.55;;
18659;SDS011;9459;50.254;19.014;2023-06-10T03:07:41;18.33;;;16.52;;
18659;SDS011;9459;50.254;19.014;2023-06-10T03:10:10;19.80;;;17.60;;
18659;SDS011;9459;50.254;19.014;2023-06-10T03:12:38;15.93;;;14.43;;
18659;SDS011;9459;50.254;19.014;2023-06-10T03:15:07;16.08;;;14.40;;
18659;SDS011;9459;50.254;19.014;2023-06-10T03:17:36;17.67;;;15.90;;
18659;SDS011;9459;50.254;19.014;2023-06-10T03:20:07;17.13;;;15.43;;
18659;SDS011;9459;50.254;19.014;2023-06-10T03:22:37;15.90;;;14.23;;
18659;SDS011;9459;50.254;19.014;2023-06-10T03:25:06;16.92;;;15.23;;
18659;SDS011;9459;50.254;19.014;2023-06-10T03:27:41;16.23;;;14.63;;
18659;SDS011;9459;50.254;19.014;2023-06-10T03:30:11;16.23;;;14.50;;
18659;SDS011;9459;50.254;19.014;2023-06-10T03:32:40;15.45;;;13.88;;
18659;SDS011;9459;50.254;19.014;2023-06-10T03:35:10;15.48;;;13.88;;
18659;SDS011;9459;50.254;19.014;2023-06-10T03:37:40;15.23;;;13.70;;
18659;SDS011;9459;50.254;19.014;2023-06-10T03:40:08;14.98;;;13.40;;
18659;SDS011;9459;50.254;19.014;2023-06-10T03:42:38;15.90;;;14.30;;
18659;SDS011;9459;50.254;19.014;2023-06-10T03:45:07;15.10;;;13.55;;
18659;SDS011;9459;50.254;19.014;2023-06-10T03:47:36;15.38;;;13.88;;
18659;SDS011;9459;50.254;19.014;2023-06-10T03:50:08;15.55;;;13.95;;
18659;SDS011;9459;50.254;19.014;2023-06-10T03:52:38;14.55;;;13.05;;
18659;SDS011;9459;50.254;19.014;2023-06-10T03:55:08;15.25;;;12.82;;
18659;SDS011;9459;50.254;19.014;2023-06-10T03:57:38;13.93;;;12.63;;
18659;SDS011;9459;50.254;19.014;2023-06-10T04:00:07;13.10;;;11.80;;
18659;SDS011;9459;50.254;19.014;2023-06-10T04:02:38;15.93;;;13.30;;
18659;SDS011;9459;50.254;19.014;2023-06-10T04:05:15;14.90;;;12.85;;
18659;SDS011;9459;50.254;19.014;2023-06-10T04:07:44;17.08;;;12.20;;
18659;SDS011;9459;50.254;19.014;2023-06-10T04:10:13;13.90;;;12.35;;
18659;SDS011;9459;50.254;19.014;2023-06-10T04:12:42;13.32;;;11.93;;
18659;SDS011;9459;50.254;19.014;2023-06-10T04:15:10;14.45;;;12.00;;
18659;SDS011;9459;50.254;19.014;2023-06-10T04:17:40;13.18;;;11.82;;
18659;SDS011;9459;50.254;19.014;2023-06-10T04:20:10;11.43;;;10.23;;
18659;SDS011;9459;50.254;19.014;2023-06-10T04:22:40;12.52;;;11.32;;
18659;SDS011;9459;50.254;19.014;2023-06-10T04:25:09;17.03;;;12.07;;
18659;SDS011;9459;50.254;19.014;2023-06-10T04:27:38;12.20;;;10.65;;
18659;SDS011;9459;50.254;19.014;2023-06-10T04:30:07;12.52;;;10.88;;
18659;SDS011;9459;50.254;19.014;2023-06-10T04:32:36;16.02;;;11.35;;
18659;SDS011;9459;50.254;19.014;2023-06-10T04:35:05;14.65;;;11.18;;
18659;SDS011;9459;50.254;19.014;2023-06-10T04:37:35;12.35;;;10.88;;
18659;SDS011;9459;50.254;19.014;2023-06-10T04:40:09;16.13;;;11.00;;
18659;SDS011;9459;50.254;19.014;2023-06-10T04:42:37;11.90;;;10.60;;
18659;SDS011;9459;50.254;19.014;2023-06-10T04:45:07;12.57;;;11.25;;
18659;SDS011;9459;50.254;19.014;2023-06-10T04:47:36;13.70;;;11.85;;
18659;SDS011;9459;50.254;19.014;2023-06-10T04:50:06;12.77;;;11.38;;
18659;SDS011;9459;50.254;19.014;2023-06-10T04:52:35;14.98;;;10.82;;
18659;SDS011;9459;50.254;19.014;2023-06-10T04:55:03;13.60;;;11.90;;
18659;SDS011;9459;50.254;19.014;2023-06-10T04:57:35;16.25;;;11.60;;
18659;SDS011;9459;50.254;19.014;2023-06-10T05:00:04;17.60;;;11.50;;
18659;SDS011;9459;50.254;19.014;2023-06-10T05:02:33;14.45;;;12.65;;
18659;SDS011;9459;50.254;19.014;2023-06-10T05:05:03;14.95;;;12.63;;
18659;SDS011;9459;50.254;19.014;2023-06-10T05:07:31;15.18;;;11.77;;
18659;SDS011;9459;50.254;19.014;2023-06-10T05:10:00;17.00;;;13.27;;
18659;SDS011;9459;50.254;19.014;2023-06-10T05:12:31;17.95;;;13.45;;
18659;SDS011;9459;50.254;19.014;2023-06-10T05:14:59;14.65;;;12.10;;
18659;SDS011;9459;50.254;19.014;2023-06-10T05:17:28;15.05;;;12.68;;
18659;SDS011;9459;50.254;19.014;2023-06-10T05:19:57;15.90;;;11.82;;
18659;SDS011;9459;50.254;19.014;2023-06-10T05:22:26;13.75;;;12.32;;
18659;SDS011;9459;50.254;19.014;2023-06-10T05:24:54;16.83;;;11.60;;
18659;SDS011;9459;50.254;19.014;2023-06-10T05:27:22;14.43;;;12.25;;
18659;SDS011;9459;50.254;19.014;2023-06-10T05:29:53;15.82;;;12.32;;
18659;SDS011;9459;50.254;19.014;2023-06-10T05:32:22;17.58;;;11.50;;
18659;SDS011;9459;50.254;19.014;2023-06-10T05:34:51;16.55;;;11.90;;
18659;SDS011;9459;50.254;19.014;2023-06-10T05:37:19;15.88;;;11.57;;
18659;SDS011;9459;50.254;19.014;2023-06-10T05:39:48;15.18;;;10.95;;
18659;SDS011;9459;50.254;19.014;2023-06-10T05:42:16;14.07;;;11.32;;
18659;SDS011;9459;50.254;19.014;2023-06-10T05:44:44;15.68;;;10.98;;
18659;SDS011;9459;50.254;19.014;2023-06-10T05:47:15;16.40;;;9.38;;
18659;SDS011;9459;50.254;19.014;2023-06-10T05:49:44;12.95;;;9.82;;
18659;SDS011;9459;50.254;19.014;2023-06-10T05:52:15;12.57;;;9.45;;
18659;SDS011;9459;50.254;19.014;2023-06-10T05:54:43;12.27;;;9.32;;
18659;SDS011;9459;50.254;19.014;2023-06-10T05:57:11;12.52;;;8.85;;
18659;SDS011;9459;50.254;19.014;2023-06-10T05:59:40;10.45;;;8.88;;
18659;SDS011;9459;50.254;19.014;2023-06-10T06:02:09;13.23;;;9.00;;
18659;SDS011;9459;50.254;19.014;2023-06-10T06:04:38;11.05;;;8.65;;
18659;SDS011;9459;50.254;19.014;2023-06-10T06:07:07;12.48;;;9.23;;
18659;SDS011;9459;50.254;19.014;2023-06-10T06:09:36;13.10;;;8.95;;
18659;SDS011;9459;50.254;19.014;2023-06-10T06:12:05;12.80;;;8.93;;
18659;SDS011;9459;50.254;19.014;2023-06-10T06:14:37;9.93;;;8.93;;
18659;SDS011;9459;50.254;19.014;2023-06-10T06:17:06;10.13;;;8.07;;
18659;SDS011;9459;50.254;19.014;2023-06-10T06:19:35;9.85;;;8.70;;
18659;SDS011;9459;50.254;19.014;2023-06-10T06:22:05;12.00;;;8.48;;
18659;SDS011;9459;50.254;19.014;2023-06-10T06:24:34;11.60;;;9.20;;
18659;SDS011;9459;50.254;19.014;2023-06-10T06:27:03;12.75;;;8.43;;
18659;SDS011;9459;50.254;19.014;2023-06-10T06:29:32;11.38;;;8.80;;
18659;SDS011;9459;50.254;19.014;2023-06-10T06:32:04;13.68;;;9.35;;
18659;SDS011;9459;50.254;19.014;2023-06-10T06:34:33;10.02;;;8.63;;
18659;SDS011;9459;50.254;19.014;2023-06-10T06:37:01;10.95;;;8.82;;
18659;SDS011;9459;50.254;19.014;2023-06-10T06:39:31;10.38;;;8.45;;
18659;SDS011;9459;50.254;19.014;2023-06-10T06:42:00;14.57;;;9.63;;
18659;SDS011;9459;50.254;19.014;2023-06-10T06:44:29;12.20;;;8.95;;
18659;SDS011;9459;50.254;19.014;2023-06-10T06:46:58;11.52;;;8.02;;
18659;SDS011;9459;50.254;19.014;2023-06-10T06:49:26;12.98;;;7.85;;
18659;SDS011;9459;50.254;19.014;2023-06-10T06:51:55;11.85;;;8.65;;
18659;SDS011;9459;50.254;19.014;2023-06-10T06:54:23;11.50;;;9.52;;
18659;SDS011;9459;50.254;19.014;2023-06-10T06:56:55;10.68;;;8.95;;
18659;SDS011;9459;50.254;19.014;2023-06-10T06:59:24;13.50;;;8.52;;
18659;SDS011;9459;50.254;19.014;2023-06-10T07:01:52;14.57;;;8.73;;
18659;SDS011;9459;50.254;19.014;2023-06-10T07:04:21;9.32;;;8.40;;
18659;SDS011;9459;50.254;19.014;2023-06-10T07:06:50;11.35;;;8.73;;
18659;SDS011;9459;50.254;19.014;2023-06-10T07:09:19;10.35;;;8.95;;
18659;SDS011;9459;50.254;19.014;2023-06-10T07:11:47;13.07;;;8.85;;
18659;SDS011;9459;50.254;19.014;2023-06-10T07:14:17;11.15;;;8.73;;
18659;SDS011;9459;50.254;19.014;2023-06-10T07:16:45;11.65;;;8.95;;
18659;SDS011;9459;50.254;19.014;2023-06-10T07:19:15;12.32;;;9.02;;
18659;SDS011;9459;50.254;19.014;2023-06-10T07:21:44;11.90;;;8.88;;
18659;SDS011;9459;50.254;19.014;2023-06-10T07:24:12;11.93;;;9.40;;
18659;SDS011;9459;50.254;19.014;2023-06-10T07:26:40;10.73;;;8.27;;
18659;SDS011;9459;50.254;19.014;2023-06-10T07:29:09;17.75;;;8.15;;
18659;SDS011;9459;50.254;19.014;2023-06-10T07:31:39;10.23;;;9.13;;
18659;SDS011;9459;50.254;19.014;2023-06-10T07:34:08;9.63;;;8.63;;
18659;SDS011;9459;50.254;19.014;2023-06-10T07:36:37;9.95;;;8.25;;
18659;SDS011;9459;50.254;19.014;2023-06-10T07:39:05;11.05;;;7.60;;
18659;SDS011;9459;50.254;19.014;2023-06-10T07:41:35;11.82;;;7.75;;
18659;SDS011;9459;50.254;19.014;2023-06-10T07:44:03;8.82;;;7.78;;
18659;SDS011;9459;50.254;19.014;2023-06-10T07:46:32;11.50;;;8.20;;
18659;SDS011;9459;50.254;19.014;2023-06-10T07:49:02;12.13;;;7.60;;
18659;SDS011;9459;50.254;19.014;2023-06-10T07:51:30;9.55;;;7.95;;
18659;SDS011;9459;50.254;19.014;2023-06-10T07:53:59;8.52;;;7.63;;
18659;SDS011;9459;50.254;19.014;2023-06-10T07:56:27;7.95;;;6.63;;
18659;SDS011;9459;50.254;19.014;2023-06-10T07:58:56;11.30;;;7.47;;
18659;SDS011;9459;50.254;19.014;2023-06-10T08:01:25;10.55;;;6.30;;
18659;SDS011;9459;50.254;19.014;2023-06-10T08:03:53;10.02;;;6.35;;
18659;SDS011;9459;50.254;19.014;2023-06-10T08:06:24;7.20;;;6.50;;
18659;SDS011;9459;50.254;19.014;2023-06-10T08:08:52;9.45;;;6.75;;
18659;SDS011;9459;50.254;19.014;2023-06-10T08:11:21;7.97;;;6.22;;
18659;SDS011;9459;50.254;19.014;2023-06-10T08:13:49;8.60;;;6.07;;
18659;SDS011;9459;50.254;19.014;2023-06-10T08:16:18;7.50;;;6.72;;
18659;SDS011;9459;50.254;19.014;2023-06-10T08:18:46;7.75;;;6.38;;
18659;SDS011;9459;50.254;19.014;2023-06-10T08:21:21;7.45;;;6.20;;
18659;SDS011;9459;50.254;19.014;2023-06-10T08:23:53;6.90;;;6.20;;
18659;SDS011;9459;50.254;19.014;2023-06-10T08:26:23;12.85;;;8.07;;
18659;SDS011;9459;50.254;19.014;2023-06-10T08:28:52;11.07;;;7.80;;
18659;SDS011;9459;50.254;19.014;2023-06-10T08:31:22;8.48;;;6.55;;
18659;SDS011;9459;50.254;19.014;2023-06-10T08:33:51;7.68;;;6.88;;
18659;SDS011;9459;50.254;19.014;2023-06-10T08:36:19;7.13;;;5.20;;
18659;SDS011;9459;50.254;19.014;2023-06-10T08:38:48;6.82;;;5.15;;
18659;SDS011;9459;50.254;19.014;2023-06-10T08:41:18;5.63;;;5.03;;
18659;SDS011;9459;50.254;19.014;2023-06-10T08:43:48;6.68;;;5.40;;
18659;SDS011;9459;50.254;19.014;2023-06-10T08:46:21;7.65;;;5.90;;
18659;SDS011;9459;50.254;19.014;2023-06-10T08:48:50;6.95;;;5.15;;
18659;SDS011;9459;50.254;19.014;2023-06-10T08:51:20;6.13;;;5.45;;
18659;SDS011;9459;50.254;19.014;2023-06-10T08:53:53;8.18;;;5.35;;
18659;SDS011;9459;50.254;19.014;2023-06-10T08:56:30;7.50;;;5.25;;
18659;SDS011;9459;50.254;19.014;2023-06-10T08:59:06;5.90;;;5.30;;
18659;SDS011;9459;50.254;19.014;2023-06-10T09:01:34;10.07;;;4.85;;
18659;SDS011;9459;50.254;19.014;2023-06-10T09:04:03;7.32;;;5.28;;
18659;SDS011;9459;50.254;19.014;2023-06-10T09:06:34;5.50;;;5.00;;
18659;SDS011;9459;50.254;19.014;2023-06-10T09:09:03;5.68;;;4.80;;
18659;SDS011;9459;50.254;19.014;2023-06-10T09:11:35;5.47;;;4.82;;
18659;SDS011;9459;50.254;19.014;2023-06-10T09:14:03;8.85;;;5.47;;
18659;SDS011;9459;50.254;19.014;2023-06-10T09:16:32;6.40;;;4.45;;
18659;SDS011;9459;50.254;19.014;2023-06-10T09:19:00;5.15;;;4.50;;
18659;SDS011;9459;50.254;19.014;2023-06-10T09:21:35;7.40;;;4.35;;
18659;SDS011;9459;50.254;19.014;2023-06-10T09:24:04;7.38;;;4.70;;
18659;SDS011;9459;50.254;19.014;2023-06-10T09:26:35;5.30;;;4.80;;
18659;SDS011;9459;50.254;19.014;2023-06-10T09:29:06;4.28;;;3.85;;
18659;SDS011;9459;50.254;19.014;2023-06-10T09:34:07;6.07;;;5.03;;
18659;SDS011;9459;50.254;19.014;2023-06-10T09:36:36;5.05;;;4.18;;
18659;SDS011;9459;50.254;19.014;2023-06-10T09:39:05;7.28;;;4.20;;
18659;SDS011;9459;50.254;19.014;2023-06-10T09:41:43;5.95;;;4.97;;
18659;SDS011;9459;50.254;19.014;2023-06-10T09:44:12;4.38;;;3.97;;
18659;SDS011;9459;50.254;19.014;2023-06-10T09:46:42;7.38;;;5.15;;
18659;SDS011;9459;50.254;19.014;2023-06-10T09:49:14;5.85;;;4.57;;
18659;SDS011;9459;50.254;19.014;2023-06-10T09:51:48;6.70;;;4.07;;
18659;SDS011;9459;50.254;19.014;2023-06-10T09:54:18;7.28;;;4.95;;
18659;SDS011;9459;50.254;19.014;2023-06-10T09:56:49;4.75;;;4.10;;
18659;SDS011;9459;50.254;19.014;2023-06-10T09:59:27;6.18;;;4.25;;
18659;SDS011;9459;50.254;19.014;2023-06-10T10:01:57;4.63;;;4.00;;
18659;SDS011;9459;50.254;19.014;2023-06-10T10:04:27;7.53;;;4.68;;
18659;SDS011;9459;50.254;19.014;2023-06-10T10:06:57;5.40;;;3.90;;
18659;SDS011;9459;50.254;19.014;2023-06-10T10:09:26;6.65;;;3.63;;
18659;SDS011;9459;50.254;19.014;2023-06-10T10:11:56;4.90;;;3.42;;
18659;SDS011;9459;50.254;19.014;2023-06-10T10:16:54;4.38;;;3.50;;
18659;SDS011;9459;50.254;19.014;2023-06-10T10:19:27;4.85;;;3.80;;
18659;SDS011;9459;50.254;19.014;2023-06-10T10:22:00;4.25;;;3.85;;
18659;SDS011;9459;50.254;19.014;2023-06-10T10:24:30;4.13;;;3.63;;
18659;SDS011;9459;50.254;19.014;2023-06-10T10:27:04;3.97;;;3.40;;
18659;SDS011;9459;50.254;19.014;2023-06-10T10:29:40;3.10;;;2.80;;
18659;SDS011;9459;50.254;19.014;2023-06-10T10:32:09;3.47;;;3.17;;
18659;SDS011;9459;50.254;19.014;2023-06-10T10:34:40;3.53;;;3.10;;
18659;SDS011;9459;50.254;19.014;2023-06-10T10:37:11;5.05;;;3.35;;
18659;SDS011;9459;50.254;19.014;2023-06-10T10:39:39;3.70;;;3.30;;
18659;SDS011;9459;50.254;19.014;2023-06-10T10:42:10;4.47;;;3.40;;
18659;SDS011;9459;50.254;19.014;2023-06-10T10:44:38;3.65;;;2.90;;
18659;SDS011;9459;50.254;19.014;2023-06-10T10:47:08;3.33;;;2.90;;
18659;SDS011;9459;50.254;19.014;2023-06-10T10:49:37;5.05;;;3.03;;
18659;SDS011;9459;50.254;19.014;2023-06-10T10:52:10;3.72;;;3.17;;
18659;SDS011;9459;50.254;19.014;2023-06-10T10:54:43;4.93;;;3.35;;
18659;SDS011;9459;50.254;19.014;2023-06-10T10:57:14;4.00;;;3.40;;
18659;SDS011;9459;50.254;19.014;2023-06-10T10:59:44;4.18;;;3.47;;
18659;SDS011;9459;50.254;19.014;2023-06-10T11:02:15;5.60;;;3.60;;
18659;SDS011;9459;50.254;19.014;2023-06-10T11:04:45;6.50;;;3.70;;
18659;SDS011;9459;50.254;19.014;2023-06-10T11:07:19;4.65;;;3.80;;
18659;SDS011;9459;50.254;19.014;2023-06-10T11:09:58;4.93;;;3.45;;
18659;SDS011;9459;50.254;19.014;2023-06-10T11:12:42;6.13;;;4.03;;
18659;SDS011;9459;50.254;19.014;2023-06-10T11:15:18;7.30;;;4.40;;
18659;SDS011;9459;50.254;19.014;2023-06-10T11:20:55;5.45;;;3.88;;
18659;SDS011;9459;50.254;19.014;2023-06-10T11:23:38;4.68;;;4.20;;
18659;SDS011;9459;50.254;19.014;2023-06-10T11:26:14;5.30;;;4.72;;
18659;SDS011;9459;50.254;19.014;2023-06-10T11:29:02;5.80;;;3.50;;
18659;SDS011;9459;50.254;19.014;2023-06-10T11:31:32;5.28;;;3.72;;
18659;SDS011;9459;50.254;19.014;2023-06-10T11:34:02;5.27;;;4.17;;
18659;SDS011;9459;50.254;19.014;2023-06-10T11:36:33;5.95;;;4.20;;
18659;SDS011;9459;50.254;19.014;2023-06-10T11:39:07;5.97;;;4.55;;
18659;SDS011;9459;50.254;19.014;2023-06-10T11:41:37;6.00;;;4.80;;
18659;SDS011;9459;50.254;19.014;2023-06-10T11:44:09;5.63;;;4.80;;
18659;SDS011;9459;50.254;19.014;2023-06-10T11:46:43;6.72;;;4.90;;
18659;SDS011;9459;50.254;19.014;2023-06-10T11:49:14;5.03;;;4.50;;
18659;SDS011;9459;50.254;19.014;2023-06-10T11:51:42;11.57;;;8.02;;
18659;SDS011;9459;50.254;19.014;2023-06-10T11:54:17;9.32;;;7.68;;
18659;SDS011;9459;50.254;19.014;2023-06-10T11:56:46;6.50;;;4.93;;
18659;SDS011;9459;50.254;19.014;2023-06-10T11:59:16;5.97;;;4.90;;
18659;SDS011;9459;50.254;19.014;2023-06-10T12:01:44;6.53;;;4.95;;
18659;SDS011;9459;50.254;19.014;2023-06-10T12:04:15;10.15;;;9.05;;
18659;SDS011;9459;50.254;19.014;2023-06-10T12:09:17;6.15;;;4.97;;
18659;SDS011;9459;50.254;19.014;2023-06-10T12:11:50;6.13;;;4.70;;
18659;SDS011;9459;50.254;19.014;2023-06-10T12:17:36;6.35;;;5.40;;
18659;SDS011;9459;50.254;19.014;2023-06-10T12:20:06;7.95;;;4.70;;
18659;SDS011;9459;50.254;19.014;2023-06-10T12:22:36;6.70;;;5.40;;
18659;SDS011;9459;50.254;19.014;2023-06-10T12:25:06;6.75;;;5.28;;
18659;SDS011;9459;50.254;19.014;2023-06-10T12:27:36;6.30;;;5.07;;
18659;SDS011;9459;50.254;19.014;2023-06-10T12:30:07;9.73;;;4.70;;
18659;SDS011;9459;50.254;19.014;2023-06-10T12:32:37;6.18;;;4.40;;
18659;SDS011;9459;50.254;19.014;2023-06-10T12:35:08;4.95;;;4.38;;
18659;SDS011;9459;50.254;19.014;2023-06-10T12:37:40;5.43;;;4.68;;
18659;SDS011;9459;50.254;19.014;2023-06-10T12:40:10;6.13;;;4.47;;
18659;SDS011;9459;50.254;19.014;2023-06-10T12:42:39;8.00;;;5.05;;
18659;SDS011;9459;50.254;19.014;2023-06-10T12:45:10;6.07;;;5.18;;
18659;SDS011;9459;50.254;19.014;2023-06-10T12:47:40;6.20;;;4.50;;
18659;SDS011;9459;50.254;19.014;2023-06-10T12:50:09;5.25;;;4.72;;
18659;SDS011;9459;50.254;19.014;2023-06-10T12:52:39;5.32;;;4.70;;
18659;SDS011;9459;50.254;19.014;2023-06-10T12:55:09;6.85;;;4.75;;
18659;SDS011;9459;50.254;19.014;2023-06-10T12:57:47;5.78;;;4.40;;
18659;SDS011;9459;50.254;19.014;2023-06-10T13:00:18;5.65;;;4.50;;
18659;SDS011;9459;50.254;19.014;2023-06-10T13:02:48;5.10;;;4.13;;
18659;SDS011;9459;50.254;19.014;2023-06-10T13:05:17;4.47;;;3.88;;
18659;SDS011;9459;50.254;19.014;2023-06-10T13:07:47;4.90;;;4.40;;
18659;SDS011;9459;50.254;19.014;2023-06-10T13:10:16;4.68;;;4.13;;
18659;SDS011;9459;50.254;19.014;2023-06-10T13:12:48;5.32;;;4.43;;
18659;SDS011;9459;50.254;19.014;2023-06-10T13:15:17;6.05;;;5.20;;
18659;SDS011;9459;50.254;19.014;2023-06-10T13:17:47;5.03;;;4.55;;
18659;SDS011;9459;50.254;19.014;2023-06-10T13:20:17;6.18;;;4.45;;
18659;SDS011;9459;50.254;19.014;2023-06-10T13:22:46;6.68;;;4.38;;
18659;SDS011;9459;50.254;19.014;2023-06-10T13:25:15;4.60;;;4.18;;
18659;SDS011;9459;50.254;19.014;2023-06-10T13:27:43;6.63;;;4.68;;
18659;SDS011;9459;50.254;19.014;2023-06-10T13:30:12;5.28;;;4.80;;
18659;SDS011;9459;50.254;19.014;2023-06-10T13:32:42;5.97;;;5.15;;
18659;SDS011;9459;50.254;19.014;2023-06-10T13:35:11;7.63;;;4.97;;
18659;SDS011;9459;50.254;19.014;2023-06-10T13:37:40;7.90;;;4.88;;
18659;SDS011;9459;50.254;19.014;2023-06-10T13:40:09;5.65;;;4.78;;
18659;SDS011;9459;50.254;19.014;2023-06-10T13:42:38;6.88;;;5.20;;
18659;SDS011;9459;50.254;19.014;2023-06-10T13:45:07;4.65;;;3.90;;
18659;SDS011;9459;50.254;19.014;2023-06-10T13:47:37;5.55;;;4.55;;
18659;SDS011;9459;50.254;19.014;2023-06-10T13:50:08;6.70;;;4.90;;
18659;SDS011;9459;50.254;19.014;2023-06-10T13:52:37;6.22;;;4.95;;
18659;SDS011;9459;50.254;19.014;2023-06-10T13:55:06;6.32;;;5.03;;
18659;SDS011;9459;50.254;19.014;2023-06-10T13:57:36;8.15;;;5.07;;
18659;SDS011;9459;50.254;19.014;2023-06-10T14:00:05;7.65;;;4.88;;
18659;SDS011;9459;50.254;19.014;2023-06-10T14:02:34;9.73;;;5.60;;
18659;SDS011;9459;50.254;19.014;2023-06-10T14:05:04;8.30;;;4.82;;
18659;SDS011;9459;50.254;19.014;2023-06-10T14:07:37;6.85;;;5.07;;
18659;SDS011;9459;50.254;19.014;2023-06-10T14:10:08;4.63;;;4.18;;
18659;SDS011;9459;50.254;19.014;2023-06-10T14:12:37;6.88;;;5.20;;
18659;SDS011;9459;50.254;19.014;2023-06-10T14:15:07;6.45;;;5.15;;
18659;SDS011;9459;50.254;19.014;2023-06-10T14:17:36;7.30;;;5.55;;
18659;SDS011;9459;50.254;19.014;2023-06-10T14:20:05;6.70;;;5.30;;
18659;SDS011;9459;50.254;19.014;2023-06-10T14:22:36;6.25;;;4.45;;
18659;SDS011;9459;50.254;19.014;2023-06-10T14:25:05;3.97;;;3.57;;
18659;SDS011;9459;50.254;19.014;2023-06-10T14:27:35;9.00;;;2.75;;
18659;SDS011;9459;50.254;19.014;2023-06-10T14:30:04;7.75;;;2.90;;
18659;SDS011;9459;50.254;19.014;2023-06-10T14:32:33;5.65;;;3.10;;
18659;SDS011;9459;50.254;19.014;2023-06-10T14:35:02;7.20;;;3.80;;
18659;SDS011;9459;50.254;19.014;2023-06-10T14:37:30;4.15;;;3.25;;
18659;SDS011;9459;50.254;19.014;2023-06-10T14:40:00;3.45;;;3.00;;
18659;SDS011;9459;50.254;19.014;2023-06-10T14:42:29;5.20;;;3.67;;
18659;SDS011;9459;50.254;19.014;2023-06-10T14:44:59;5.15;;;3.45;;
18659;SDS011;9459;50.254;19.014;2023-06-10T14:47:27;7.03;;;3.70;;
18659;SDS011;9459;50.254;19.014;2023-06-10T14:49:56;5.05;;;3.88;;
18659;SDS011;9459;50.254;19.014;2023-06-10T14:52:24;5.68;;;4.25;;
18659;SDS011;9459;50.254;19.014;2023-06-10T14:54:53;5.90;;;4.88;;
18659;SDS011;9459;50.254;19.014;2023-06-10T14:57:23;6.68;;;5.38;;
18659;SDS011;9459;50.254;19.014;2023-06-10T14:59:51;6.78;;;5.45;;
18659;SDS011;9459;50.254;19.014;2023-06-10T15:02:20;8.23;;;5.60;;
18659;SDS011;9459;50.254;19.014;2023-06-10T15:04:48;5.53;;;5.03;;